sensor_id;sensor_type;location;lat;lon;timestamp;temperature;humidity
20735;DHT22;10528;52.124;5.196;2023-05-08T00:01:46;14.00;99.90
20735;DHT22;10528;52.124;5.196;2023-05-08T00:04:13;14.00;99.90
20735;DHT22;10528;52.124;5.196;2023-05-08T00:06:41;14.00;99.90
20735;DHT22;10528;52.124;5.196;2023-05-08T00:09:08;14.00;99.90
20735;DHT22;10528;52.124;5.196;2023-05-08T00:11:35;14.10;99.90
20735;DHT22;10528;52.124;5.196;2023-05-08T00:14:01;14.10;99.90
20735;DHT22;10528;52.124;5.196;2023-05-08T00:16:28;14.10;99.90
20735;DHT22;10528;52.124;5.196;2023-05-08T00:18:56;14.10;99.90
20735;DHT22;10528;52.124;5.196;2023-05-08T00:21:22;14.10;99.90
20735;DHT22;10528;52.124;5.196;2023-05-08T00:23:50;14.00;99.90
20735;DHT22;10528;52.124;5.196;2023-05-08T00:26:17;14.00;99.90
20735;DHT22;10528;52.124;5.196;2023-05-08T00:28:43;14.00;99.90
20735;DHT22;10528;52.124;5.196;2023-05-08T00:31:10;13.90;99.90
20735;DHT22;10528;52.124;5.196;2023-05-08T00:33:37;13.90;99.90
20735;DHT22;10528;52.124;5.196;2023-05-08T00:36:05;13.90;99.90
20735;DHT22;10528;52.124;5.196;2023-05-08T00:38:34;13.80;99.90
20735;DHT22;10528;52.124;5.196;2023-05-08T00:41:02;13.80;99.90
20735;DHT22;10528;52.124;5.196;2023-05-08T00:43:29;13.70;99.90
20735;DHT22;10528;52.124;5.196;2023-05-08T00:45:58;13.70;99.90
20735;DHT22;10528;52.124;5.196;2023-05-08T00:48:32;13.70;99.90
20735;DHT22;10528;52.124;5.196;2023-05-08T00:51:02;13.70;99.90
20735;DHT22;10528;52.124;5.196;2023-05-08T00:53:35;13.60;99.90
20735;DHT22;10528;52.124;5.196;2023-05-08T00:56:04;13.60;99.90
20735;DHT22;10528;52.124;5.196;2023-05-08T00:58:34;13.60;99.90
20735;DHT22;10528;52.124;5.196;2023-05-08T01:01:01;13.60;99.90
20735;DHT22;10528;52.124;5.196;2023-05-08T01:03:30;13.50;99.90
20735;DHT22;10528;52.124;5.196;2023-05-08T01:05:58;13.50;99.90
20735;DHT22;10528;52.124;5.196;2023-05-08T01:08:26;13.50;99.90
20735;DHT22;10528;52.124;5.196;2023-05-08T01:14:10;13.40;99.90
20735;DHT22;10528;52.124;5.196;2023-05-08T01:17:29;13.40;99.90
20735;DHT22;10528;52.124;5.196;2023-05-08T01:20:18;13.30;99.90
20735;DHT22;10528;52.124;5.196;2023-05-08T01:23:27;13.30;99.90
20735;DHT22;10528;52.124;5.196;2023-05-08T01:29:51;13.30;99.90
20735;DHT22;10528;52.124;5.196;2023-05-08T01:32:42;13.30;99.90
20735;DHT22;10528;52.124;5.196;2023-05-08T01:35:33;13.20;99.90
20735;DHT22;10528;52.124;5.196;2023-05-08T01:38:29;13.20;99.90
20735;DHT22;10528;52.124;5.196;2023-05-08T01:41:15;13.20;99.90
20735;DHT22;10528;52.124;5.196;2023-05-08T01:46:36;13.20;99.90
20735;DHT22;10528;52.124;5.196;2023-05-08T01:49:07;13.20;99.90
20735;DHT22;10528;52.124;5.196;2023-05-08T01:51:39;13.20;99.90
20735;DHT22;10528;52.124;5.196;2023-05-08T01:54:14;13.20;99.90
20735;DHT22;10528;52.124;5.196;2023-05-08T01:56:47;13.10;99.90
20735;DHT22;10528;52.124;5.196;2023-05-08T01:59:20;13.10;99.90
20735;DHT22;10528;52.124;5.196;2023-05-08T02:01:53;13.10;99.90
20735;DHT22;10528;52.124;5.196;2023-05-08T02:04:23;13.10;99.90
20735;DHT22;10528;52.124;5.196;2023-05-08T02:06:51;13.10;99.90
20735;DHT22;10528;52.124;5.196;2023-05-08T02:09:22;13.10;99.90
20735;DHT22;10528;52.124;5.196;2023-05-08T02:11:51;13.10;99.90
20735;DHT22;10528;52.124;5.196;2023-05-08T02:14:20;13.00;99.90
20735;DHT22;10528;52.124;5.196;2023-05-08T02:16:50;13.00;99.90
20735;DHT22;10528;52.124;5.196;2023-05-08T02:19:21;12.90;99.90
20735;DHT22;10528;52.124;5.196;2023-05-08T02:21:51;13.00;99.90
20735;DHT22;10528;52.124;5.196;2023-05-08T02:24:21;12.90;99.90
20735;DHT22;10528;52.124;5.196;2023-05-08T02:26:51;12.90;99.90
20735;DHT22;10528;52.124;5.196;2023-05-08T02:29:21;12.90;99.90
20735;DHT22;10528;52.124;5.196;2023-05-08T02:31:51;12.90;99.90
20735;DHT22;10528;52.124;5.196;2023-05-08T02:34:22;12.80;99.90
20735;DHT22;10528;52.124;5.196;2023-05-08T02:36:51;12.80;99.90
20735;DHT22;10528;52.124;5.196;2023-05-08T02:39:20;12.80;99.90
20735;DHT22;10528;52.124;5.196;2023-05-08T02:41:51;12.70;99.90
20735;DHT22;10528;52.124;5.196;2023-05-08T02:44:18;12.70;99.90
20735;DHT22;10528;52.124;5.196;2023-05-08T02:46:57;12.70;99.90
20735;DHT22;10528;52.124;5.196;2023-05-08T02:49:55;12.70;99.90
20735;DHT22;10528;52.124;5.196;2023-05-08T02:52:34;12.70;99.90
20735;DHT22;10528;52.124;5.196;2023-05-08T02:55:28;12.70;99.90
20735;DHT22;10528;52.124;5.196;2023-05-08T02:58:11;12.60;99.90
20735;DHT22;10528;52.124;5.196;2023-05-08T03:00:51;12.60;99.90
20735;DHT22;10528;52.124;5.196;2023-05-08T03:03:36;12.50;99.90
20735;DHT22;10528;52.124;5.196;2023-05-08T03:06:13;12.50;99.90
20735;DHT22;10528;52.124;5.196;2023-05-08T03:08:45;12.50;99.90
20735;DHT22;10528;52.124;5.196;2023-05-08T03:11:18;12.50;99.90
20735;DHT22;10528;52.124;5.196;2023-05-08T03:13:48;12.50;99.90
20735;DHT22;10528;52.124;5.196;2023-05-08T03:16:22;12.40;99.90
20735;DHT22;10528;52.124;5.196;2023-05-08T03:18:58;12.40;99.90
20735;DHT22;10528;52.124;5.196;2023-05-08T03:21:30;12.40;99.90
20735;DHT22;10528;52.124;5.196;2023-05-08T03:23:59;12.40;99.90
20735;DHT22;10528;52.124;5.196;2023-05-08T03:26:28;12.30;99.90
20735;DHT22;10528;52.124;5.196;2023-05-08T03:28:56;12.30;99.90
20735;DHT22;10528;52.124;5.196;2023-05-08T03:31:31;12.30;99.90
20735;DHT22;10528;52.124;5.196;2023-05-08T03:34:01;12.30;99.90
20735;DHT22;10528;52.124;5.196;2023-05-08T03:36:29;12.30;99.90
20735;DHT22;10528;52.124;5.196;2023-05-08T03:38:58;12.20;99.90
20735;DHT22;10528;52.124;5.196;2023-05-08T03:41:26;12.30;99.90
20735;DHT22;10528;52.124;5.196;2023-05-08T03:43:54;12.30;99.90
20735;DHT22;10528;52.124;5.196;2023-05-08T03:46:22;12.30;99.90
20735;DHT22;10528;52.124;5.196;2023-05-08T03:48:50;12.30;99.90
20735;DHT22;10528;52.124;5.196;2023-05-08T03:51:20;12.30;99.90
20735;DHT22;10528;52.124;5.196;2023-05-08T03:53:48;12.30;99.90
20735;DHT22;10528;52.124;5.196;2023-05-08T03:56:16;12.30;99.90
20735;DHT22;10528;52.124;5.196;2023-05-08T04:01:59;12.30;99.90
20735;DHT22;10528;52.124;5.196;2023-05-08T04:04:46;12.20;99.90
20735;DHT22;10528;52.124;5.196;2023-05-08T04:07:42;12.20;99.90
20735;DHT22;10528;52.124;5.196;2023-05-08T04:10:27;12.20;99.90
20735;DHT22;10528;52.124;5.196;2023-05-08T04:13:11;12.20;99.90
20735;DHT22;10528;52.124;5.196;2023-05-08T04:15:53;12.20;99.90
20735;DHT22;10528;52.124;5.196;2023-05-08T04:18:36;12.20;99.90
20735;DHT22;10528;52.124;5.196;2023-05-08T04:21:09;12.30;99.90
20735;DHT22;10528;52.124;5.196;2023-05-08T04:23:39;12.30;99.90
20735;DHT22;10528;52.124;5.196;2023-05-08T04:26:08;12.30;99.90
20735;DHT22;10528;52.124;5.196;2023-05-08T04:28:40;12.20;99.90
20735;DHT22;10528;52.124;5.196;2023-05-08T04:31:08;12.20;99.90
20735;DHT22;10528;52.124;5.196;2023-05-08T04:33:36;12.30;99.90
20735;DHT22;10528;52.124;5.196;2023-05-08T04:36:04;12.40;99.90
20735;DHT22;10528;52.124;5.196;2023-05-08T04:38:35;12.40;99.90
20735;DHT22;10528;52.124;5.196;2023-05-08T04:41:04;12.50;99.90
20735;DHT22;10528;52.124;5.196;2023-05-08T04:43:31;12.50;99.90
20735;DHT22;10528;52.124;5.196;2023-05-08T04:45:58;12.60;99.90
20735;DHT22;10528;52.124;5.196;2023-05-08T04:48:25;12.60;99.90
20735;DHT22;10528;52.124;5.196;2023-05-08T04:50:52;12.60;99.90
20735;DHT22;10528;52.124;5.196;2023-05-08T04:53:19;12.70;99.90
20735;DHT22;10528;52.124;5.196;2023-05-08T04:55:46;12.70;99.90
20735;DHT22;10528;52.124;5.196;2023-05-08T04:58:13;12.80;99.90
20735;DHT22;10528;52.124;5.196;2023-05-08T05:00:40;12.70;99.90
20735;DHT22;10528;52.124;5.196;2023-05-08T05:03:07;12.80;99.90
20735;DHT22;10528;52.124;5.196;2023-05-08T05:05:34;12.90;99.90
20735;DHT22;10528;52.124;5.196;2023-05-08T05:08:04;12.90;99.90
20735;DHT22;10528;52.124;5.196;2023-05-08T05:10:31;12.90;99.90
20735;DHT22;10528;52.124;5.196;2023-05-08T05:12:58;13.10;99.90
20735;DHT22;10528;52.124;5.196;2023-05-08T05:15:25;13.00;99.90
20735;DHT22;10528;52.124;5.196;2023-05-08T05:17:53;13.10;99.90
20735;DHT22;10528;52.124;5.196;2023-05-08T05:20:20;13.20;99.90
20735;DHT22;10528;52.124;5.196;2023-05-08T05:22:46;13.10;99.90
20735;DHT22;10528;52.124;5.196;2023-05-08T05:25:14;13.20;99.90
20735;DHT22;10528;52.124;5.196;2023-05-08T05:27:41;13.20;99.90
20735;DHT22;10528;52.124;5.196;2023-05-08T05:30:09;13.20;99.90
20735;DHT22;10528;52.124;5.196;2023-05-08T05:32:37;13.30;99.90
20735;DHT22;10528;52.124;5.196;2023-05-08T05:35:05;13.40;99.90
20735;DHT22;10528;52.124;5.196;2023-05-08T05:37:32;13.50;99.90
20735;DHT22;10528;52.124;5.196;2023-05-08T05:39:59;13.50;99.90
20735;DHT22;10528;52.124;5.196;2023-05-08T05:42:26;13.50;99.90
20735;DHT22;10528;52.124;5.196;2023-05-08T05:44:54;13.60;99.90
20735;DHT22;10528;52.124;5.196;2023-05-08T05:47:22;13.60;99.90
20735;DHT22;10528;52.124;5.196;2023-05-08T05:49:49;13.60;99.90
20735;DHT22;10528;52.124;5.196;2023-05-08T05:52:16;13.60;99.90
20735;DHT22;10528;52.124;5.196;2023-05-08T05:54:43;13.60;99.90
20735;DHT22;10528;52.124;5.196;2023-05-08T05:57:10;13.60;99.90
20735;DHT22;10528;52.124;5.196;2023-05-08T05:59:39;13.70;99.90
20735;DHT22;10528;52.124;5.196;2023-05-08T06:02:07;13.70;99.90
20735;DHT22;10528;52.124;5.196;2023-05-08T06:04:36;13.80;99.90
20735;DHT22;10528;52.124;5.196;2023-05-08T06:07:05;13.90;99.90
20735;DHT22;10528;52.124;5.196;2023-05-08T06:09:32;13.90;99.90
20735;DHT22;10528;52.124;5.196;2023-05-08T06:11:59;14.00;99.90
20735;DHT22;10528;52.124;5.196;2023-05-08T06:14:26;14.00;99.90
20735;DHT22;10528;52.124;5.196;2023-05-08T06:16:52;14.00;99.90
20735;DHT22;10528;52.124;5.196;2023-05-08T06:19:19;14.10;99.90
20735;DHT22;10528;52.124;5.196;2023-05-08T06:21:46;14.10;99.90
20735;DHT22;10528;52.124;5.196;2023-05-08T06:24:13;14.20;99.90
20735;DHT22;10528;52.124;5.196;2023-05-08T06:26:40;14.30;99.90
20735;DHT22;10528;52.124;5.196;2023-05-08T06:29:07;14.40;99.90
20735;DHT22;10528;52.124;5.196;2023-05-08T06:31:34;14.50;99.90
20735;DHT22;10528;52.124;5.196;2023-05-08T06:34:00;14.50;99.90
20735;DHT22;10528;52.124;5.196;2023-05-08T06:36:27;14.50;99.90
20735;DHT22;10528;52.124;5.196;2023-05-08T06:38:54;14.50;99.90
20735;DHT22;10528;52.124;5.196;2023-05-08T06:41:21;14.50;99.90
20735;DHT22;10528;52.124;5.196;2023-05-08T06:43:48;14.50;99.90
20735;DHT22;10528;52.124;5.196;2023-05-08T06:46:15;14.60;99.90
20735;DHT22;10528;52.124;5.196;2023-05-08T06:48:42;14.80;99.90
20735;DHT22;10528;52.124;5.196;2023-05-08T06:51:08;15.00;99.90
20735;DHT22;10528;52.124;5.196;2023-05-08T06:53:35;15.10;99.90
20735;DHT22;10528;52.124;5.196;2023-05-08T06:56:02;15.10;99.90
20735;DHT22;10528;52.124;5.196;2023-05-08T06:58:29;15.10;99.90
20735;DHT22;10528;52.124;5.196;2023-05-08T07:01:00;15.30;99.90
20735;DHT22;10528;52.124;5.196;2023-05-08T07:03:27;15.40;99.90
20735;DHT22;10528;52.124;5.196;2023-05-08T07:05:54;15.40;99.90
20735;DHT22;10528;52.124;5.196;2023-05-08T07:08:21;15.50;99.90
20735;DHT22;10528;52.124;5.196;2023-05-08T07:10:48;15.60;99.90
20735;DHT22;10528;52.124;5.196;2023-05-08T07:13:16;15.60;99.90
20735;DHT22;10528;52.124;5.196;2023-05-08T07:15:47;15.80;99.90
20735;DHT22;10528;52.124;5.196;2023-05-08T07:18:14;15.70;99.90
20735;DHT22;10528;52.124;5.196;2023-05-08T07:20:40;15.80;99.90
20735;DHT22;10528;52.124;5.196;2023-05-08T07:23:07;15.90;99.90
20735;DHT22;10528;52.124;5.196;2023-05-08T07:25:35;16.00;99.90
20735;DHT22;10528;52.124;5.196;2023-05-08T07:28:02;16.10;99.90
20735;DHT22;10528;52.124;5.196;2023-05-08T07:30:29;16.10;99.90
20735;DHT22;10528;52.124;5.196;2023-05-08T07:32:56;16.10;99.90
20735;DHT22;10528;52.124;5.196;2023-05-08T07:35:23;16.00;99.90
20735;DHT22;10528;52.124;5.196;2023-05-08T07:37:50;16.10;99.90
20735;DHT22;10528;52.124;5.196;2023-05-08T07:40:17;16.20;99.90
20735;DHT22;10528;52.124;5.196;2023-05-08T07:42:44;16.30;99.90
20735;DHT22;10528;52.124;5.196;2023-05-08T07:45:11;16.20;99.90
20735;DHT22;10528;52.124;5.196;2023-05-08T07:47:48;16.30;99.90
20735;DHT22;10528;52.124;5.196;2023-05-08T07:50:16;16.40;99.90
20735;DHT22;10528;52.124;5.196;2023-05-08T07:52:44;16.40;99.90
20735;DHT22;10528;52.124;5.196;2023-05-08T07:55:13;16.40;99.90
20735;DHT22;10528;52.124;5.196;2023-05-08T07:57:41;16.30;99.90
20735;DHT22;10528;52.124;5.196;2023-05-08T08:00:11;16.30;99.90
20735;DHT22;10528;52.124;5.196;2023-05-08T08:02:43;16.50;99.90
20735;DHT22;10528;52.124;5.196;2023-05-08T08:05:11;16.60;99.90
20735;DHT22;10528;52.124;5.196;2023-05-08T08:07:38;16.70;99.90
20735;DHT22;10528;52.124;5.196;2023-05-08T08:10:06;16.80;99.90
20735;DHT22;10528;52.124;5.196;2023-05-08T08:12:33;16.80;99.90
20735;DHT22;10528;52.124;5.196;2023-05-08T08:15:01;16.70;99.90
20735;DHT22;10528;52.124;5.196;2023-05-08T08:17:27;16.80;99.90
20735;DHT22;10528;52.124;5.196;2023-05-08T08:19:55;16.80;99.90
20735;DHT22;10528;52.124;5.196;2023-05-08T08:22:23;16.90;99.90
20735;DHT22;10528;52.124;5.196;2023-05-08T08:24:50;16.90;99.90
20735;DHT22;10528;52.124;5.196;2023-05-08T08:27:20;17.00;99.90
20735;DHT22;10528;52.124;5.196;2023-05-08T08:29:47;17.10;99.90
20735;DHT22;10528;52.124;5.196;2023-05-08T08:32:17;17.20;99.90
20735;DHT22;10528;52.124;5.196;2023-05-08T08:34:44;17.30;99.90
20735;DHT22;10528;52.124;5.196;2023-05-08T08:37:11;17.20;99.90
20735;DHT22;10528;52.124;5.196;2023-05-08T08:39:41;17.20;99.90
20735;DHT22;10528;52.124;5.196;2023-05-08T08:42:08;17.20;99.90
20735;DHT22;10528;52.124;5.196;2023-05-08T08:44:35;17.40;99.90
20735;DHT22;10528;52.124;5.196;2023-05-08T08:47:04;17.50;99.90
20735;DHT22;10528;52.124;5.196;2023-05-08T08:49:42;17.60;99.90
20735;DHT22;10528;52.124;5.196;2023-05-08T08:55:06;17.30;99.90
20735;DHT22;10528;52.124;5.196;2023-05-08T08:57:54;17.30;99.90
20735;DHT22;10528;52.124;5.196;2023-05-08T09:00:41;17.20;99.90
20735;DHT22;10528;52.124;5.196;2023-05-08T09:03:09;17.50;99.90
20735;DHT22;10528;52.124;5.196;2023-05-08T09:05:36;17.50;99.90
20735;DHT22;10528;52.124;5.196;2023-05-08T09:08:04;17.40;99.90
20735;DHT22;10528;52.124;5.196;2023-05-08T09:10:33;17.50;99.90
20735;DHT22;10528;52.124;5.196;2023-05-08T09:13:04;17.60;99.90
20735;DHT22;10528;52.124;5.196;2023-05-08T09:15:32;17.70;99.90
20735;DHT22;10528;52.124;5.196;2023-05-08T09:18:02;17.70;99.90
20735;DHT22;10528;52.124;5.196;2023-05-08T09:20:29;17.70;99.90
20735;DHT22;10528;52.124;5.196;2023-05-08T09:22:56;17.80;99.90
20735;DHT22;10528;52.124;5.196;2023-05-08T09:25:40;17.80;99.90
20735;DHT22;10528;52.124;5.196;2023-05-08T09:28:22;17.80;99.90
20735;DHT22;10528;52.124;5.196;2023-05-08T09:30:56;18.00;99.90
20735;DHT22;10528;52.124;5.196;2023-05-08T09:33:28;18.10;99.90
20735;DHT22;10528;52.124;5.196;2023-05-08T09:35:55;18.10;99.90
20735;DHT22;10528;52.124;5.196;2023-05-08T09:38:35;18.00;99.90
20735;DHT22;10528;52.124;5.196;2023-05-08T09:43:39;18.20;99.90
20735;DHT22;10528;52.124;5.196;2023-05-08T09:46:21;18.10;99.90
20735;DHT22;10528;52.124;5.196;2023-05-08T09:48:51;18.10;99.90
20735;DHT22;10528;52.124;5.196;2023-05-08T09:51:21;18.10;99.90
20735;DHT22;10528;52.124;5.196;2023-05-08T09:53:53;18.20;99.90
20735;DHT22;10528;52.124;5.196;2023-05-08T09:56:35;18.30;99.90
20735;DHT22;10528;52.124;5.196;2023-05-08T09:59:20;18.30;99.90
20735;DHT22;10528;52.124;5.196;2023-05-08T10:01:52;18.30;99.90
20735;DHT22;10528;52.124;5.196;2023-05-08T10:04:36;18.30;99.90
20735;DHT22;10528;52.124;5.196;2023-05-08T10:07:03;18.30;99.90
20735;DHT22;10528;52.124;5.196;2023-05-08T10:09:30;18.30;99.90
20735;DHT22;10528;52.124;5.196;2023-05-08T10:12:12;18.30;99.90
20735;DHT22;10528;52.124;5.196;2023-05-08T10:14:39;18.30;99.90
20735;DHT22;10528;52.124;5.196;2023-05-08T10:17:09;18.20;99.90
20735;DHT22;10528;52.124;5.196;2023-05-08T10:19:39;18.30;99.90
20735;DHT22;10528;52.124;5.196;2023-05-08T10:22:12;18.30;99.90
20735;DHT22;10528;52.124;5.196;2023-05-08T10:24:43;18.50;99.90
20735;DHT22;10528;52.124;5.196;2023-05-08T10:28:17;18.60;99.90
20735;DHT22;10528;52.124;5.196;2023-05-08T10:30:24;18.50;99.90
20735;DHT22;10528;52.124;5.196;2023-05-08T10:32:52;18.60;99.90
20735;DHT22;10528;52.124;5.196;2023-05-08T10:35:24;18.60;99.90
20735;DHT22;10528;52.124;5.196;2023-05-08T10:37:52;18.80;99.90
20735;DHT22;10528;52.124;5.196;2023-05-08T10:40:21;18.80;99.90
20735;DHT22;10528;52.124;5.196;2023-05-08T10:42:49;18.70;99.90
20735;DHT22;10528;52.124;5.196;2023-05-08T10:45:17;18.80;99.90
20735;DHT22;10528;52.124;5.196;2023-05-08T10:48:07;18.80;99.90
20735;DHT22;10528;52.124;5.196;2023-05-08T10:51:04;18.90;99.90
20735;DHT22;10528;52.124;5.196;2023-05-08T10:53:47;19.00;99.90
20735;DHT22;10528;52.124;5.196;2023-05-08T10:56:38;19.20;99.90
20735;DHT22;10528;52.124;5.196;2023-05-08T10:59:05;19.20;99.90
20735;DHT22;10528;52.124;5.196;2023-05-08T11:01:32;19.20;99.90
20735;DHT22;10528;52.124;5.196;2023-05-08T11:04:21;19.30;99.90
20735;DHT22;10528;52.124;5.196;2023-05-08T11:06:49;19.30;99.90
20735;DHT22;10528;52.124;5.196;2023-05-08T11:09:21;19.40;99.90
20735;DHT22;10528;52.124;5.196;2023-05-08T11:14:30;19.30;99.90
20735;DHT22;10528;52.124;5.196;2023-05-08T11:19:26;19.40;99.90
20735;DHT22;10528;52.124;5.196;2023-05-08T11:22:13;19.20;99.90
20735;DHT22;10528;52.124;5.196;2023-05-08T11:27:35;19.10;99.90
20735;DHT22;10528;52.124;5.196;2023-05-08T11:35:57;19.50;99.90
20735;DHT22;10528;52.124;5.196;2023-05-08T11:40:59;20.00;99.90
20735;DHT22;10528;52.124;5.196;2023-05-08T11:46:14;20.50;99.90
20735;DHT22;10528;52.124;5.196;2023-05-08T11:48:46;20.30;99.90
20735;DHT22;10528;52.124;5.196;2023-05-08T11:51:16;20.30;99.90
20735;DHT22;10528;52.124;5.196;2023-05-08T11:53:45;20.10;99.90
20735;DHT22;10528;52.124;5.196;2023-05-08T11:56:13;20.10;99.90
20735;DHT22;10528;52.124;5.196;2023-05-08T11:58:40;20.10;99.90
20735;DHT22;10528;52.124;5.196;2023-05-08T12:01:07;19.80;99.90
20735;DHT22;10528;52.124;5.196;2023-05-08T12:03:34;19.90;99.90
20735;DHT22;10528;52.124;5.196;2023-05-08T12:06:01;19.90;99.90
20735;DHT22;10528;52.124;5.196;2023-05-08T12:08:28;19.90;99.90
20735;DHT22;10528;52.124;5.196;2023-05-08T12:10:56;19.90;99.90
20735;DHT22;10528;52.124;5.196;2023-05-08T12:13:25;20.20;99.90
20735;DHT22;10528;52.124;5.196;2023-05-08T12:15:58;20.30;99.90
20735;DHT22;10528;52.124;5.196;2023-05-08T12:18:27;20.30;99.90
20735;DHT22;10528;52.124;5.196;2023-05-08T12:20:59;20.30;99.90
20735;DHT22;10528;52.124;5.196;2023-05-08T12:23:28;20.50;99.90
20735;DHT22;10528;52.124;5.196;2023-05-08T12:25:58;20.60;99.90
20735;DHT22;10528;52.124;5.196;2023-05-08T12:28:26;20.70;99.90
20735;DHT22;10528;52.124;5.196;2023-05-08T12:30:53;20.70;99.90
20735;DHT22;10528;52.124;5.196;2023-05-08T12:33:21;20.50;99.90
20735;DHT22;10528;52.124;5.196;2023-05-08T12:35:49;20.60;99.90
20735;DHT22;10528;52.124;5.196;2023-05-08T12:38:16;20.70;99.90
20735;DHT22;10528;52.124;5.196;2023-05-08T12:40:45;20.80;99.90
20735;DHT22;10528;52.124;5.196;2023-05-08T12:43:30;20.80;99.90
20735;DHT22;10528;52.124;5.196;2023-05-08T12:45:58;20.80;99.90
20735;DHT22;10528;52.124;5.196;2023-05-08T12:48:25;20.90;99.90
20735;DHT22;10528;52.124;5.196;2023-05-08T12:50:54;20.90;99.90
20735;DHT22;10528;52.124;5.196;2023-05-08T12:53:29;21.00;99.90
20735;DHT22;10528;52.124;5.196;2023-05-08T12:56:02;20.90;99.90
20735;DHT22;10528;52.124;5.196;2023-05-08T12:58:32;21.10;99.90
20735;DHT22;10528;52.124;5.196;2023-05-08T13:01:10;21.20;99.90
20735;DHT22;10528;52.124;5.196;2023-05-08T13:03:39;21.30;99.90
20735;DHT22;10528;52.124;5.196;2023-05-08T13:06:18;21.10;99.90
20735;DHT22;10528;52.124;5.196;2023-05-08T13:08:52;21.20;99.90
20735;DHT22;10528;52.124;5.196;2023-05-08T13:11:30;21.40;99.90
20735;DHT22;10528;52.124;5.196;2023-05-08T13:13:59;21.30;99.90
20735;DHT22;10528;52.124;5.196;2023-05-08T13:16:26;21.40;99.90
20735;DHT22;10528;52.124;5.196;2023-05-08T13:18:53;21.40;99.90
20735;DHT22;10528;52.124;5.196;2023-05-08T13:21:19;21.40;99.90
20735;DHT22;10528;52.124;5.196;2023-05-08T13:23:46;21.30;99.90
20735;DHT22;10528;52.124;5.196;2023-05-08T13:26:13;21.20;99.90
20735;DHT22;10528;52.124;5.196;2023-05-08T13:28:40;21.10;99.90
20735;DHT22;10528;52.124;5.196;2023-05-08T13:31:07;21.30;99.90
20735;DHT22;10528;52.124;5.196;2023-05-08T13:33:34;21.30;99.90
20735;DHT22;10528;52.124;5.196;2023-05-08T13:36:00;21.30;99.90
20735;DHT22;10528;52.124;5.196;2023-05-08T13:38:27;21.30;99.90
20735;DHT22;10528;52.124;5.196;2023-05-08T13:40:54;21.30;99.90
20735;DHT22;10528;52.124;5.196;2023-05-08T13:43:21;21.30;99.90
20735;DHT22;10528;52.124;5.196;2023-05-08T13:45:48;21.20;99.90
20735;DHT22;10528;52.124;5.196;2023-05-08T13:48:15;21.00;99.90
20735;DHT22;10528;52.124;5.196;2023-05-08T13:50:42;21.00;99.90
20735;DHT22;10528;52.124;5.196;2023-05-08T13:53:09;21.00;99.90
20735;DHT22;10528;52.124;5.196;2023-05-08T13:55:36;20.90;99.90
20735;DHT22;10528;52.124;5.196;2023-05-08T13:58:02;21.00;99.90
20735;DHT22;10528;52.124;5.196;2023-05-08T14:00:29;21.00;99.90
20735;DHT22;10528;52.124;5.196;2023-05-08T14:02:56;20.70;99.90
20735;DHT22;10528;52.124;5.196;2023-05-08T14:05:23;20.70;99.90
20735;DHT22;10528;52.124;5.196;2023-05-08T14:07:50;20.60;99.90
20735;DHT22;10528;52.124;5.196;2023-05-08T14:10:17;20.70;99.90
20735;DHT22;10528;52.124;5.196;2023-05-08T14:12:44;20.70;99.90
20735;DHT22;10528;52.124;5.196;2023-05-08T14:15:12;20.60;99.90
20735;DHT22;10528;52.124;5.196;2023-05-08T14:17:39;20.70;99.90
20735;DHT22;10528;52.124;5.196;2023-05-08T14:20:08;20.60;99.90
20735;DHT22;10528;52.124;5.196;2023-05-08T14:22:37;20.60;99.90
20735;DHT22;10528;52.124;5.196;2023-05-08T14:25:05;20.70;99.90
20735;DHT22;10528;52.124;5.196;2023-05-08T14:27:32;20.80;99.90
20735;DHT22;10528;52.124;5.196;2023-05-08T14:29:59;20.80;99.90
20735;DHT22;10528;52.124;5.196;2023-05-08T14:32:26;21.00;99.90
20735;DHT22;10528;52.124;5.196;2023-05-08T14:34:53;21.10;99.90
20735;DHT22;10528;52.124;5.196;2023-05-08T14:37:20;21.00;99.90
20735;DHT22;10528;52.124;5.196;2023-05-08T14:39:47;21.00;99.90
20735;DHT22;10528;52.124;5.196;2023-05-08T14:42:14;21.00;99.90
20735;DHT22;10528;52.124;5.196;2023-05-08T14:44:49;21.20;99.90
20735;DHT22;10528;52.124;5.196;2023-05-08T14:47:16;21.10;99.90
20735;DHT22;10528;52.124;5.196;2023-05-08T14:49:43;21.00;99.90
20735;DHT22;10528;52.124;5.196;2023-05-08T14:52:10;21.00;99.90
20735;DHT22;10528;52.124;5.196;2023-05-08T14:54:37;21.00;99.90
20735;DHT22;10528;52.124;5.196;2023-05-08T14:57:04;21.10;99.90
20735;DHT22;10528;52.124;5.196;2023-05-08T14:59:31;21.10;99.90
20735;DHT22;10528;52.124;5.196;2023-05-08T15:01:58;21.10;99.90
20735;DHT22;10528;52.124;5.196;2023-05-08T15:04:25;21.10;99.90
20735;DHT22;10528;52.124;5.196;2023-05-08T15:06:51;21.00;99.90
20735;DHT22;10528;52.124;5.196;2023-05-08T15:09:18;21.00;99.90
20735;DHT22;10528;52.124;5.196;2023-05-08T15:11:45;21.10;99.90
20735;DHT22;10528;52.124;5.196;2023-05-08T15:14:12;21.10;99.90
20735;DHT22;10528;52.124;5.196;2023-05-08T15:16:39;21.20;99.90
20735;DHT22;10528;52.124;5.196;2023-05-08T15:19:06;21.20;99.90
20735;DHT22;10528;52.124;5.196;2023-05-08T15:21:34;21.00;99.90
20735;DHT22;10528;52.124;5.196;2023-05-08T15:24:01;21.10;99.90
20735;DHT22;10528;52.124;5.196;2023-05-08T15:26:28;21.10;99.90
20735;DHT22;10528;52.124;5.196;2023-05-08T15:28:55;21.10;99.90
20735;DHT22;10528;52.124;5.196;2023-05-08T15:31:22;20.90;99.90
20735;DHT22;10528;52.124;5.196;2023-05-08T15:33:49;21.00;99.90
20735;DHT22;10528;52.124;5.196;2023-05-08T15:36:15;21.00;99.90
20735;DHT22;10528;52.124;5.196;2023-05-08T15:38:42;21.00;99.90
20735;DHT22;10528;52.124;5.196;2023-05-08T15:41:09;20.90;99.90
20735;DHT22;10528;52.124;5.196;2023-05-08T15:43:41;21.00;99.90
20735;DHT22;10528;52.124;5.196;2023-05-08T15:46:08;20.80;99.90
20735;DHT22;10528;52.124;5.196;2023-05-08T15:48:35;21.00;99.90
20735;DHT22;10528;52.124;5.196;2023-05-08T15:51:02;20.90;99.90
20735;DHT22;10528;52.124;5.196;2023-05-08T15:53:29;21.00;99.90
20735;DHT22;10528;52.124;5.196;2023-05-08T15:55:56;21.10;99.90
20735;DHT22;10528;52.124;5.196;2023-05-08T15:58:23;21.10;99.90
20735;DHT22;10528;52.124;5.196;2023-05-08T16:00:50;21.00;99.90
20735;DHT22;10528;52.124;5.196;2023-05-08T16:03:17;20.90;99.90
20735;DHT22;10528;52.124;5.196;2023-05-08T16:05:44;21.00;99.90
20735;DHT22;10528;52.124;5.196;2023-05-08T16:08:11;21.00;99.90
20735;DHT22;10528;52.124;5.196;2023-05-08T16:10:39;20.90;99.90
20735;DHT22;10528;52.124;5.196;2023-05-08T16:13:07;21.00;99.90
20735;DHT22;10528;52.124;5.196;2023-05-08T16:15:35;20.90;99.90
20735;DHT22;10528;52.124;5.196;2023-05-08T16:18:02;20.80;99.90
20735;DHT22;10528;52.124;5.196;2023-05-08T16:20:29;20.90;99.90
20735;DHT22;10528;52.124;5.196;2023-05-08T16:22:59;20.90;99.90
20735;DHT22;10528;52.124;5.196;2023-05-08T16:25:26;20.80;99.90
20735;DHT22;10528;52.124;5.196;2023-05-08T16:27:53;20.80;99.90